createdAt,value
2023-03-22T00:01:36.737Z,19.00
2023-03-22T00:04:05.460Z,19.76
2023-03-22T00:06:33.124Z,20.52
2023-03-22T00:09:01.647Z,18.05
2023-03-22T00:11:30.352Z,19.57
2023-03-22T00:13:58.991Z,20.33
2023-03-22T00:16:27.129Z,20.14
2023-03-22T00:18:55.656Z,20.52
2023-03-22T00:21:23.823Z,20.14
2023-03-22T00:23:52.483Z,19.57
2023-03-22T00:26:20.742Z,19.57
2023-03-22T00:28:49.169Z,20.33
2023-03-22T00:31:17.657Z,19.38
2023-03-22T00:33:46.051Z,21.09
2023-03-22T00:36:14.434Z,19.95
2023-03-22T00:38:44.259Z,20.33
2023-03-22T00:41:21.635Z,20.90
2023-03-22T00:43:52.410Z,21.09
2023-03-22T00:46:22.731Z,21.47
2023-03-22T00:48:52.792Z,23.37
2023-03-22T00:51:22.621Z,22.99
2023-03-22T00:53:54.066Z,21.47
2023-03-22T00:56:25.653Z,22.04
2023-03-22T00:58:55.555Z,21.28
2023-03-22T01:01:25.953Z,21.47
2023-03-22T01:03:56.410Z,23.18
2023-03-22T01:06:26.444Z,17.67
2023-03-22T01:08:57.285Z,17.48
2023-03-22T01:11:27.649Z,19.38
2023-03-22T01:13:57.492Z,19.95
2023-03-22T01:16:27.497Z,20.33
2023-03-22T01:18:57.374Z,20.71
2023-03-22T01:21:27.198Z,20.52
2023-03-22T01:23:57.004Z,19.38
2023-03-22T01:26:26.895Z,20.33
2023-03-22T01:28:57.729Z,17.86
2023-03-22T01:31:26.757Z,19.76
2023-03-22T01:33:56.588Z,20.71
2023-03-22T01:36:26.605Z,20.90
2023-03-22T01:38:56.793Z,20.71
2023-03-22T01:41:25.404Z,19.57
2023-03-22T01:44:19.520Z,21.85
2023-03-22T01:46:51.643Z,19.57
2023-03-22T01:49:28.102Z,20.52
2023-03-22T01:52:05.709Z,22.42
2023-03-22T01:54:53.388Z,21.85
2023-03-22T01:57:23.259Z,19.38
2023-03-22T01:59:53.129Z,19.95
2023-03-22T02:02:24.767Z,20.14
2023-03-22T02:04:58.013Z,19.95
2023-03-22T02:07:28.181Z,17.86
2023-03-22T02:09:59.821Z,19.95
2023-03-22T02:13:16.196Z,21.47
2023-03-22T02:15:55.814Z,18.81
2023-03-22T02:18:39.257Z,17.86
2023-03-22T02:21:36.904Z,18.43
2023-03-22T02:24:49.480Z,18.24
2023-03-22T02:27:48.482Z,17.67
2023-03-22T02:30:40.565Z,18.43
2023-03-22T02:33:34.892Z,18.43
2023-03-22T02:36:54.917Z,16.91
2023-03-22T02:39:27.585Z,16.72
2023-03-22T02:42:18.381Z,18.43
2023-03-22T02:45:29.028Z,17.29
2023-03-22T02:48:30.295Z,17.86
2023-03-22T02:51:08.219Z,17.48
2023-03-22T02:53:49.661Z,19.57
2023-03-22T02:56:39.146Z,19.76
2023-03-22T02:59:12.176Z,19.19
2023-03-22T03:01:56.275Z,18.62
2023-03-22T03:04:33.134Z,17.29
2023-03-22T03:07:09.547Z,18.62
2023-03-22T03:09:43.186Z,19.57
2023-03-22T03:12:23.550Z,20.33
2023-03-22T03:14:54.229Z,20.33
2023-03-22T03:17:38.511Z,19.57
2023-03-22T03:20:16.761Z,21.85
2023-03-22T03:23:08.596Z,19.19
2023-03-22T03:25:52.945Z,18.62
2023-03-22T03:28:30.308Z,20.90
2023-03-22T03:31:18.082Z,19.19
2023-03-22T03:34:42.238Z,19.19
2023-03-22T03:37:20.441Z,18.62
2023-03-22T03:40:09.390Z,20.33
2023-03-22T03:42:48.263Z,20.14
2023-03-22T03:45:21.979Z,20.33
2023-03-22T03:47:57.925Z,23.75
2023-03-22T03:50:28.590Z,22.42
2023-03-22T03:52:59.906Z,21.47
2023-03-22T03:55:31.813Z,21.66
2023-03-22T03:58:01.555Z,21.47
2023-03-22T04:00:31.347Z,22.04
2023-03-22T04:03:01.370Z,22.80
2023-03-22T04:05:31.804Z,23.56
2023-03-22T04:08:01.848Z,23.18
2023-03-22T04:10:31.693Z,22.04
2023-03-22T04:13:01.497Z,21.85
2023-03-22T04:15:31.344Z,22.61
2023-03-22T04:18:01.026Z,24.89
2023-03-22T04:20:31.552Z,22.99
2023-03-22T04:23:01.296Z,19.00
2023-03-22T04:25:33.931Z,22.23
2023-03-22T04:28:05.344Z,23.56
2023-03-22T04:30:36.418Z,21.85
2023-03-22T04:33:07.227Z,23.75
2023-03-22T04:35:37.123Z,22.04
2023-03-22T04:38:07.881Z,20.71
2023-03-22T04:40:38.890Z,26.03
2023-03-22T04:43:09.913Z,25.27
2023-03-22T04:45:42.125Z,25.46
2023-03-22T04:48:12.202Z,24.51
2023-03-22T04:50:42.208Z,23.94
2023-03-22T04:53:12.444Z,23.75
2023-03-22T04:55:42.982Z,22.61
2023-03-22T04:58:12.779Z,22.80
2023-03-22T05:00:42.680Z,23.94
2023-03-22T05:03:13.366Z,23.75
2023-03-22T05:05:51.215Z,24.70
2023-03-22T05:08:24.951Z,23.37
2023-03-22T05:10:57.806Z,25.65
2023-03-22T05:13:28.172Z,26.22
2023-03-22T05:15:58.027Z,19.95
2023-03-22T05:18:28.128Z,23.18
2023-03-22T05:20:58.593Z,25.08
2023-03-22T05:23:28.372Z,22.04
2023-03-22T05:25:58.236Z,23.56
2023-03-22T05:28:28.605Z,23.94
2023-03-22T05:30:58.438Z,21.47
2023-03-22T05:33:29.741Z,24.13
2023-03-22T05:35:59.517Z,24.32
2023-03-22T05:38:29.376Z,23.56
2023-03-22T05:40:59.301Z,18.24
2023-03-22T05:43:29.404Z,23.75
2023-03-22T05:45:59.176Z,23.56
2023-03-22T05:48:28.940Z,22.61
2023-03-22T05:50:58.671Z,23.18
2023-03-22T05:53:28.361Z,25.08
2023-03-22T05:55:57.771Z,23.75
2023-03-22T05:58:28.895Z,23.37
2023-03-22T06:01:17.803Z,21.85
2023-03-22T06:03:49.129Z,18.81
2023-03-22T06:06:19.144Z,24.13
2023-03-22T06:08:48.895Z,22.99
2023-03-22T06:11:19.385Z,22.61
2023-03-22T06:13:49.292Z,23.37
2023-03-22T06:16:19.104Z,21.28
2023-03-22T06:18:48.996Z,23.37
2023-03-22T06:21:18.984Z,21.85
2023-03-22T06:23:48.799Z,23.18
2023-03-22T06:26:18.513Z,23.56
2023-03-22T06:28:48.340Z,21.85
2023-03-22T06:31:18.225Z,22.42
2023-03-22T06:33:48.299Z,21.66
2023-03-22T06:36:18.076Z,19.95
2023-03-22T06:38:47.900Z,19.19
2023-03-22T06:41:18.081Z,21.85
2023-03-22T06:43:48.210Z,21.09
2023-03-22T06:46:18.241Z,20.52
2023-03-22T06:48:48.038Z,20.52
2023-03-22T06:51:17.774Z,20.52
2023-03-22T06:53:48.401Z,22.23
2023-03-22T06:56:18.273Z,18.43
2023-03-22T06:58:48.241Z,20.52
2023-03-22T07:01:19.458Z,19.38
2023-03-22T07:03:49.415Z,19.95
2023-03-22T07:06:19.251Z,18.05
2023-03-22T07:08:50.817Z,19.00
2023-03-22T07:11:22.128Z,21.09
2023-03-22T07:13:54.552Z,18.05
2023-03-22T07:16:24.358Z,19.76
2023-03-22T07:18:55.926Z,18.81
2023-03-22T07:21:25.831Z,19.00
2023-03-22T07:23:55.765Z,18.62
2023-03-22T07:26:26.400Z,18.81
2023-03-22T07:28:57.237Z,18.05
2023-03-22T07:31:27.034Z,19.19
2023-03-22T07:33:57.234Z,16.91
2023-03-22T07:36:27.192Z,18.81
2023-03-22T07:38:55.756Z,18.05
2023-03-22T07:41:25.481Z,19.00
2023-03-22T07:43:56.795Z,17.48
2023-03-22T07:46:29.965Z,18.05
2023-03-22T07:48:59.789Z,17.48
2023-03-22T07:51:30.101Z,18.43
2023-03-22T07:54:02.125Z,17.29
2023-03-22T07:56:31.808Z,18.62
2023-03-22T07:59:02.149Z,16.72
2023-03-22T08:01:32.091Z,17.10
2023-03-22T08:04:02.087Z,17.67
2023-03-22T08:07:03.366Z,16.72
2023-03-22T08:09:33.268Z,16.15
2023-03-22T08:12:03.376Z,17.86
2023-03-22T08:14:37.129Z,16.91
2023-03-22T08:17:05.993Z,16.15
2023-03-22T08:19:34.445Z,15.20
2023-03-22T08:22:04.422Z,15.39
2023-03-22T08:24:34.449Z,15.77
2023-03-22T08:27:04.936Z,15.39
2023-03-22T08:29:35.278Z,16.72
2023-03-22T08:32:05.808Z,15.01
2023-03-22T08:34:40.668Z,14.25
2023-03-22T08:37:12.233Z,14.63
2023-03-22T08:39:44.054Z,14.44
2023-03-22T08:42:19.601Z,13.68
2023-03-22T08:44:49.404Z,14.82
2023-03-22T08:47:19.357Z,13.11
2023-03-22T08:49:49.092Z,14.63
2023-03-22T08:52:18.940Z,14.44
2023-03-22T08:54:49.097Z,13.49
2023-03-22T08:57:22.003Z,13.11
2023-03-22T08:59:52.597Z,14.06
2023-03-22T09:02:22.269Z,12.92
2023-03-22T09:04:52.708Z,14.06
2023-03-22T09:07:22.588Z,13.49
2023-03-22T09:09:52.645Z,12.92
2023-03-22T09:12:22.454Z,13.49
2023-03-22T09:14:52.515Z,12.54
2023-03-22T09:17:22.585Z,13.30
2023-03-22T09:20:02.745Z,12.35
2023-03-22T09:22:39.324Z,12.73
2023-03-22T09:25:12.624Z,12.92
2023-03-22T09:27:43.114Z,11.40
2023-03-22T09:30:13.657Z,12.54
2023-03-22T09:32:41.547Z,12.92
2023-03-22T09:35:09.954Z,12.92
2023-03-22T09:37:38.977Z,12.54
2023-03-22T09:40:08.146Z,13.30
2023-03-22T09:42:50.658Z,12.92
2023-03-22T09:45:38.569Z,11.59
2023-03-22T09:48:23.107Z,12.92
2023-03-22T09:50:55.367Z,11.78
2023-03-22T09:53:30.452Z,13.68
2023-03-22T09:56:24.965Z,13.87
2023-03-22T09:59:18.926Z,12.73
2023-03-22T10:02:00.139Z,11.97
2023-03-22T10:04:58.233Z,12.54
2023-03-22T10:07:51.953Z,12.16
2023-03-22T10:10:24.680Z,10.45
2023-03-22T10:13:23.572Z,12.35
2023-03-22T10:15:59.138Z,12.54
2023-03-22T10:18:39.342Z,10.07
2023-03-22T10:21:13.726Z,11.59
2023-03-22T10:24:09.624Z,10.83
2023-03-22T10:26:44.732Z,11.21
2023-03-22T10:29:27.246Z,11.02
2023-03-22T10:32:29.280Z,11.02
2023-03-22T10:34:59.261Z,10.45
2023-03-22T10:37:37.648Z,9.12
2023-03-22T10:40:17.628Z,10.07
2023-03-22T10:43:03.561Z,9.88
2023-03-22T10:45:36.421Z,9.31
2023-03-22T10:48:21.270Z,9.88
2023-03-22T10:50:51.822Z,9.50
2023-03-22T10:53:38.536Z,10.45
2023-03-22T10:56:16.273Z,9.69
2023-03-22T10:58:47.727Z,10.07
2023-03-22T11:01:30.186Z,9.12
2023-03-22T11:04:15.673Z,9.88
2023-03-22T11:06:56.123Z,9.12
2023-03-22T11:09:26.182Z,9.69
2023-03-22T11:11:59.844Z,9.88
2023-03-22T11:14:35.588Z,9.69
2023-03-22T11:17:14.504Z,10.07
2023-03-22T11:20:01.854Z,9.50
2023-03-22T11:22:45.301Z,9.69
2023-03-22T11:25:32.073Z,8.93
2023-03-22T11:28:04.559Z,8.74
2023-03-22T11:30:36.456Z,8.55
2023-03-22T11:33:08.364Z,7.22
2023-03-22T11:35:39.753Z,7.22
2023-03-22T11:38:29.764Z,6.84
2023-03-22T11:41:29.763Z,7.79
2023-03-22T11:44:10.120Z,8.17
2023-03-22T11:47:00.382Z,7.60
2023-03-22T11:49:46.388Z,7.03
2023-03-22T11:52:26.273Z,7.41
2023-03-22T11:54:59.188Z,7.98
2023-03-22T11:57:33.904Z,7.22
2023-03-22T12:00:19.824Z,7.98
2023-03-22T12:03:13.878Z,7.98
2023-03-22T12:05:48.930Z,7.79
2023-03-22T12:08:44.634Z,7.98
2023-03-22T12:11:33.852Z,7.22
2023-03-22T12:14:27.190Z,8.74
2023-03-22T12:17:14.327Z,7.60
2023-03-22T12:20:21.719Z,7.41
2023-03-22T12:22:55.139Z,8.17
2023-03-22T12:25:35.803Z,8.36
2023-03-22T12:28:18.044Z,7.22
2023-03-22T12:30:58.833Z,8.36
2023-03-22T12:33:42.694Z,7.22
2023-03-22T12:36:20.847Z,7.22
2023-03-22T12:39:01.232Z,6.46
2023-03-22T12:41:38.013Z,6.27
2023-03-22T12:44:31.755Z,6.46
2023-03-22T12:47:17.264Z,5.89
2023-03-22T12:50:02.860Z,5.51
2023-03-22T12:52:56.532Z,5.70
2023-03-22T12:55:33.740Z,4.18
2023-03-22T12:58:10.209Z,4.94
2023-03-22T13:00:49.775Z,4.37
2023-03-22T13:03:28.957Z,4.37
2023-03-22T13:06:23.581Z,5.13
2023-03-22T13:09:20.989Z,4.75
2023-03-22T13:12:18.700Z,4.75
2023-03-22T13:14:57.676Z,4.56
2023-03-22T13:17:27.557Z,3.42
2023-03-22T13:20:14.752Z,4.18
2023-03-22T13:22:42.108Z,3.99
2023-03-22T13:25:13.330Z,4.75
2023-03-22T13:28:03.448Z,4.75
2023-03-22T13:30:47.092Z,3.80
2023-03-22T13:33:27.184Z,4.18
2023-03-22T13:36:07.364Z,3.80
2023-03-22T13:38:43.032Z,4.18
2023-03-22T13:41:31.188Z,4.56
2023-03-22T13:44:28.424Z,4.37
2023-03-22T13:47:01.530Z,4.18
2023-03-22T13:49:53.274Z,3.99
2023-03-22T13:52:29.121Z,4.37
2023-03-22T13:54:59.339Z,3.99
2023-03-22T13:58:00.251Z,4.56
2023-03-22T14:00:30.307Z,4.37
2023-03-22T14:03:05.973Z,4.56
2023-03-22T14:05:39.130Z,4.56
2023-03-22T14:08:24.907Z,5.13
2023-03-22T14:11:20.132Z,3.99
2023-03-22T14:14:19.672Z,4.18
2023-03-22T14:16:58.907Z,3.61
2023-03-22T14:19:34.637Z,4.75
